createdAt,value
2022-10-28T00:01:26.606Z,93225.91
2022-10-28T00:04:00.919Z,93228.31
2022-10-28T00:06:35.083Z,93224.94
2022-10-28T00:09:11.274Z,93228.59
2022-10-28T00:11:44.664Z,93226.81
2022-10-28T00:14:16.973Z,93219.28
2022-10-28T00:16:49.536Z,93220.06
2022-10-28T00:19:21.829Z,93216.44
2022-10-28T00:21:54.121Z,93219.56
2022-10-28T00:24:27.132Z,93218.28
2022-10-28T00:26:59.517Z,93215.16
2022-10-28T00:29:31.934Z,93215.16
2022-10-28T00:32:04.692Z,93214.91
2022-10-28T00:34:37.996Z,93213.88
2022-10-28T00:37:10.303Z,93207.66
2022-10-28T00:39:43.229Z,93219.16
2022-10-28T00:42:20.000Z,93212.34
2022-10-28T00:44:55.770Z,93212.91
2022-10-28T00:47:43.914Z,93202.47
2022-10-28T00:50:30.329Z,93211.88
2022-10-28T00:53:06.342Z,93206.41
2022-10-28T00:55:39.903Z,93202.25
2022-10-28T00:58:12.902Z,93209.28
2022-10-28T01:00:45.226Z,93210.06
2022-10-28T01:03:17.995Z,93206.69
2022-10-28T01:05:51.463Z,93206.94
2022-10-28T01:08:23.854Z,93198.88
2022-10-28T01:11:31.314Z,93202.78
2022-10-28T01:14:17.518Z,93200.97
2022-10-28T01:17:08.799Z,93202.53
2022-10-28T01:20:21.427Z,93197.31
2022-10-28T01:23:00.791Z,93192.91
2022-10-28T01:25:59.052Z,93198.88
2022-10-28T01:28:53.663Z,93193.41
2022-10-28T01:31:36.107Z,93189.25
2022-10-28T01:34:17.482Z,93190.00
2022-10-28T01:36:59.339Z,93190.00
2022-10-28T01:39:37.786Z,93199.13
2022-10-28T01:42:19.703Z,93202.78
2022-10-28T01:45:01.088Z,93200.19
2022-10-28T01:47:40.621Z,93204.88
2022-10-28T01:50:24.024Z,93202.81
2022-10-28T01:53:00.035Z,93203.56
2022-10-28T01:55:37.344Z,93204.09
2022-10-28T01:58:13.233Z,93209.56
2022-10-28T02:00:46.965Z,93208.00
2022-10-28T02:03:20.304Z,93205.38
2022-10-28T02:05:55.057Z,93211.66
2022-10-28T02:08:49.373Z,93203.56
2022-10-28T02:11:53.670Z,93198.63
2022-10-28T02:14:40.343Z,93196.28
2022-10-28T02:17:20.841Z,93198.38
2022-10-28T02:20:06.370Z,93192.13
2022-10-28T02:22:49.047Z,93191.06
2022-10-28T02:25:25.648Z,93194.72
2022-10-28T02:28:01.849Z,93192.13
2022-10-28T02:30:43.283Z,93190.53
2022-10-28T02:33:19.314Z,93186.13
2022-10-28T02:35:55.851Z,93192.13
2022-10-28T02:38:33.771Z,93188.97
2022-10-28T02:41:13.589Z,93198.34
2022-10-28T02:43:47.505Z,93195.25
2022-10-28T02:46:21.238Z,93195.50
2022-10-28T02:48:56.512Z,93202.81
2022-10-28T02:51:34.334Z,93201.75
2022-10-28T02:54:10.585Z,93199.66
2022-10-28T02:56:51.215Z,93197.56
2022-10-28T02:59:25.222Z,93198.88
2022-10-28T03:01:57.646Z,93199.13
2022-10-28T03:04:30.131Z,93205.91
2022-10-28T03:07:03.110Z,93200.44
2022-10-28T03:09:35.392Z,93202.50
2022-10-28T03:12:07.853Z,93202.00
2022-10-28T03:14:40.163Z,93191.84
2022-10-28T03:17:12.479Z,93191.31
2022-10-28T03:19:44.746Z,93195.75
2022-10-28T03:22:17.749Z,93193.91
2022-10-28T03:24:50.106Z,93189.50
2022-10-28T03:27:22.357Z,93194.97
2022-10-28T03:29:54.710Z,93192.09
2022-10-28T03:32:27.065Z,93194.19
2022-10-28T03:34:59.319Z,93192.59
2022-10-28T03:37:32.315Z,93195.75
2022-10-28T03:40:07.226Z,93194.94
2022-10-28T03:42:41.257Z,93196.78
2022-10-28T03:45:13.754Z,93195.47
2022-10-28T03:47:47.411Z,93198.34
2022-10-28T03:50:19.702Z,93196.25
2022-10-28T03:52:52.736Z,93203.03
2022-10-28T03:55:25.226Z,93199.34
2022-10-28T03:58:00.112Z,93199.09
2022-10-28T04:00:32.413Z,93205.06
2022-10-28T04:03:04.703Z,93204.25
2022-10-28T04:05:37.015Z,93200.63
2022-10-28T04:08:10.238Z,93199.03
2022-10-28T04:10:47.150Z,93185.72
2022-10-28T04:13:19.872Z,93201.34
2022-10-28T04:15:52.170Z,93201.34
2022-10-28T04:18:24.510Z,93210.72
2022-10-28T04:20:56.819Z,93200.75
2022-10-28T04:23:29.860Z,93200.75
2022-10-28T04:26:02.134Z,93204.88
2022-10-28T04:28:34.502Z,93200.16
2022-10-28T04:31:06.921Z,93205.66
2022-10-28T04:33:39.217Z,93206.94
2022-10-28T04:36:11.486Z,93203.00
2022-10-28T04:38:44.474Z,93209.47
2022-10-28T04:41:16.911Z,93207.38
2022-10-28T04:43:49.211Z,93206.03
2022-10-28T04:46:21.601Z,93201.84
2022-10-28T04:48:53.855Z,93200.00
2022-10-28T04:51:26.182Z,93205.72
2022-10-28T04:53:59.149Z,93203.56
2022-10-28T04:56:32.605Z,93198.94
2022-10-28T04:59:05.067Z,93205.88
2022-10-28T05:01:37.844Z,93214.19
2022-10-28T05:04:10.267Z,93202.78
2022-10-28T05:06:42.766Z,93208.00
2022-10-28T05:09:15.783Z,93212.13
2022-10-28T05:11:48.052Z,93209.00
2022-10-28T05:14:20.383Z,93208.44
2022-10-28T05:16:52.673Z,93208.13
2022-10-28T05:19:25.037Z,93209.97
2022-10-28T05:21:57.325Z,93216.72
2022-10-28T05:24:30.298Z,93217.25
2022-10-28T05:27:02.611Z,93224.56
2022-10-28T05:29:34.881Z,93221.16
2022-10-28T05:32:07.237Z,93225.59
2022-10-28T05:34:39.602Z,93231.78
2022-10-28T05:37:11.951Z,93225.47
2022-10-28T05:39:44.968Z,93231.44
2022-10-28T05:42:17.281Z,93229.88
2022-10-28T05:44:49.587Z,93235.34
2022-10-28T05:47:21.928Z,93240.81
2022-10-28T05:49:54.303Z,93242.84
2022-10-28T05:52:26.645Z,93237.66
2022-10-28T05:54:59.693Z,93233.97
2022-10-28T05:57:33.764Z,93239.50
2022-10-28T06:00:07.424Z,93246.66
2022-10-28T06:02:44.811Z,93234.69
2022-10-28T06:05:17.573Z,93242.47
2022-10-28T06:07:49.887Z,93248.19
2022-10-28T06:10:22.913Z,93245.06
2022-10-28T06:12:54.145Z,93245.13
2022-10-28T06:15:26.740Z,93243.38
2022-10-28T06:17:59.043Z,93249.94
2022-10-28T06:20:31.379Z,93251.53
2022-10-28T06:23:03.675Z,93252.88
2022-10-28T06:25:36.794Z,93254.50
2022-10-28T06:28:10.431Z,93264.13
2022-10-28T06:30:42.928Z,93261.66
2022-10-28T06:33:15.243Z,93260.19
2022-10-28T06:35:47.542Z,93267.03
2022-10-28T06:38:19.834Z,93260.13
2022-10-28T06:40:52.990Z,93262.78
2022-10-28T06:43:25.345Z,93258.94
2022-10-28T06:46:00.116Z,93263.66
2022-10-28T06:48:33.961Z,93264.47
2022-10-28T06:51:06.302Z,93261.13
2022-10-28T06:53:38.654Z,93264.25
2022-10-28T07:00:09.702Z,93263.50
2022-10-28T07:02:45.087Z,93263.22
2022-10-28T07:05:17.722Z,93258.03
2022-10-28T07:07:50.143Z,93254.59
2022-10-28T07:10:22.433Z,93261.38
2022-10-28T07:12:54.946Z,93273.06
2022-10-28T07:15:28.173Z,93265.47
2022-10-28T07:18:01.214Z,93258.06
2022-10-28T07:20:33.530Z,93267.16
2022-10-28T07:23:05.832Z,93270.13
2022-10-28T07:25:38.314Z,93260.94
2022-10-28T07:28:10.844Z,93263.97
2022-10-28T07:30:43.870Z,93262.34
2022-10-28T07:33:16.344Z,93266.13
2022-10-28T07:35:48.736Z,93262.38
2022-10-28T07:38:21.827Z,93251.47
2022-10-28T07:40:54.193Z,93259.28
2022-10-28T07:43:26.556Z,93263.56
2022-10-28T07:46:00.008Z,93265.47
2022-10-28T07:48:32.513Z,93266.13
2022-10-28T07:51:07.092Z,93254.69
2022-10-28T07:53:39.765Z,93264.44
2022-10-28T07:56:13.229Z,93261.34
2022-10-28T07:58:45.570Z,93255.00
2022-10-28T08:01:20.767Z,93259.78
2022-10-28T08:03:53.291Z,93256.69
2022-10-28T08:06:25.732Z,93240.09
2022-10-28T08:08:58.410Z,93254.16
2022-10-28T08:11:30.782Z,93258.31
2022-10-28T08:14:03.463Z,93238.63
2022-10-28T08:16:36.430Z,93269.94
2022-10-28T08:19:10.697Z,93264.50
2022-10-28T08:21:43.033Z,93262.56
2022-10-28T08:24:15.551Z,93259.88
2022-10-28T08:26:47.876Z,93266.25
2022-10-28T08:29:20.218Z,93267.47
2022-10-28T08:31:53.214Z,93270.78
2022-10-28T08:34:28.684Z,93275.13
2022-10-28T08:37:01.109Z,93273.13
2022-10-28T08:39:33.454Z,93270.22
2022-10-28T08:42:23.325Z,93264.84
2022-10-28T08:45:17.304Z,93271.06
2022-10-28T08:48:11.418Z,93264.75
2022-10-28T08:50:48.963Z,93269.09
2022-10-28T08:53:26.630Z,93266.06
2022-10-28T08:56:09.802Z,93266.66
2022-10-28T08:58:44.857Z,93272.41
2022-10-28T09:01:30.466Z,93263.34
2022-10-28T09:04:12.464Z,93264.03
2022-10-28T09:06:44.832Z,93263.19
2022-10-28T09:09:19.986Z,93256.66
2022-10-28T09:12:05.053Z,93252.59
2022-10-28T09:14:52.250Z,93254.13
2022-10-28T09:17:32.807Z,93249.41
2022-10-28T09:20:18.110Z,93252.31
2022-10-28T09:22:56.480Z,93252.69
2022-10-28T09:25:38.746Z,93241.13
2022-10-28T09:28:26.994Z,93246.78
2022-10-28T09:31:08.158Z,93242.69
2022-10-28T09:33:55.498Z,93236.34
2022-10-28T09:36:32.689Z,93233.25
2022-10-28T09:39:06.206Z,93229.25
2022-10-28T09:41:41.174Z,93225.53
2022-10-28T09:44:18.700Z,93218.59
2022-10-28T09:46:54.769Z,93222.63
2022-10-28T09:49:33.071Z,93215.81
2022-10-28T09:52:16.123Z,93210.13
2022-10-28T09:54:50.708Z,93207.00
2022-10-28T09:57:30.575Z,93211.81
2022-10-28T10:00:03.412Z,93204.81
2022-10-28T10:02:42.609Z,93200.63
2022-10-28T10:05:18.288Z,93203.78
2022-10-28T10:07:55.940Z,93209.66
2022-10-28T10:10:34.169Z,93202.22
2022-10-28T10:13:08.804Z,93203.72
2022-10-28T10:15:45.032Z,93203.31
2022-10-28T10:18:22.321Z,93197.16
2022-10-28T10:20:57.849Z,93199.00
2022-10-28T10:23:32.865Z,93195.63
2022-10-28T10:26:11.295Z,93197.78
2022-10-28T10:28:46.296Z,93193.47
2022-10-28T10:31:21.020Z,93190.66
2022-10-28T10:33:55.659Z,93191.13
2022-10-28T10:36:30.646Z,93191.63
2022-10-28T10:39:03.896Z,93191.16
2022-10-28T10:41:37.929Z,93191.22
2022-10-28T10:44:32.191Z,93189.38
2022-10-28T10:47:20.327Z,93194.00
2022-10-28T10:49:54.320Z,93190.91
2022-10-28T10:52:27.722Z,93185.00
2022-10-28T10:55:04.818Z,93187.63
2022-10-28T10:57:37.218Z,93193.41
2022-10-28T11:00:16.786Z,93187.97
2022-10-28T11:02:52.253Z,93191.50
2022-10-28T11:05:35.595Z,93184.97
2022-10-28T11:08:37.016Z,93176.44
2022-10-28T11:11:13.712Z,93181.56
2022-10-28T11:13:47.087Z,93181.78
2022-10-28T11:16:21.620Z,93177.13
2022-10-28T11:18:54.041Z,93175.13
2022-10-28T11:21:48.483Z,93171.72
2022-10-28T11:24:39.640Z,93172.81
2022-10-28T11:27:25.455Z,93164.25
2022-10-28T11:30:00.217Z,93167.28
2022-10-28T11:33:01.899Z,93163.00
2022-10-28T11:35:57.961Z,93151.19
2022-10-28T11:38:54.042Z,93149.34
2022-10-28T11:41:37.189Z,93151.03
2022-10-28T11:44:23.641Z,93147.28
2022-10-28T11:47:09.483Z,93148.09
2022-10-28T11:50:17.756Z,93146.28
2022-10-28T11:53:10.364Z,93141.81
2022-10-28T11:55:47.939Z,93129.13
2022-10-28T11:58:32.192Z,93142.59
2022-10-28T12:01:20.559Z,93133.19
2022-10-28T12:04:20.288Z,93138.00
2022-10-28T12:07:13.119Z,93137.97
2022-10-28T12:09:57.408Z,93133.09
2022-10-28T12:12:41.116Z,93123.06
2022-10-28T12:15:21.533Z,93138.13
2022-10-28T12:18:00.318Z,93125.66
2022-10-28T12:20:38.729Z,93124.03
2022-10-28T12:23:13.882Z,93130.66
2022-10-28T12:25:49.485Z,93130.44
2022-10-28T12:28:27.584Z,93122.88
2022-10-28T12:31:01.901Z,93126.22
2022-10-28T12:33:39.862Z,93136.13
2022-10-28T12:36:28.521Z,93123.84
2022-10-28T12:39:09.189Z,93125.41
2022-10-28T12:41:49.931Z,93126.94
2022-10-28T12:44:24.331Z,93110.84
2022-10-28T12:47:19.005Z,93121.44
2022-10-28T12:50:02.274Z,93116.13
2022-10-28T12:52:41.560Z,93112.72
2022-10-28T12:55:25.419Z,93114.25
2022-10-28T12:58:02.226Z,93107.00
2022-10-28T13:00:37.384Z,93121.03
2022-10-28T13:03:12.814Z,93114.84
2022-10-28T13:05:51.477Z,93115.47
2022-10-28T13:09:07.162Z,93113.56
2022-10-28T13:12:23.373Z,93106.94
2022-10-28T13:15:20.532Z,93113.56
2022-10-28T13:18:10.620Z,93121.50
2022-10-28T13:20:52.998Z,93112.75
2022-10-28T13:23:35.992Z,93112.91
2022-10-28T13:26:21.345Z,93101.75
2022-10-28T13:28:56.468Z,93111.44
2022-10-28T13:31:40.616Z,93105.84
2022-10-28T13:34:14.715Z,93106.84
2022-10-28T13:36:57.651Z,93107.44
2022-10-28T13:39:43.214Z,93105.84
2022-10-28T13:42:45.271Z,93102.81
2022-10-28T13:45:47.717Z,93107.03
2022-10-28T13:48:53.102Z,93106.50
2022-10-28T13:51:45.261Z,93094.50
2022-10-28T13:54:26.852Z,93102.13
2022-10-28T13:57:12.154Z,93105.25
2022-10-28T13:59:52.128Z,93094.28
2022-10-28T14:02:34.984Z,93102.00
2022-10-28T14:05:10.161Z,93100.47
2022-10-28T14:07:53.224Z,93099.69
2022-10-28T14:10:28.303Z,93090.59
2022-10-28T14:13:03.430Z,93091.75
2022-10-28T14:15:38.105Z,93096.25
2022-10-28T14:18:43.445Z,93084.34
2022-10-28T14:21:15.879Z,93092.84
2022-10-28T14:24:30.407Z,93086.22
2022-10-28T14:27:31.229Z,93087.41
2022-10-28T14:30:21.825Z,93089.38
2022-10-28T14:33:16.411Z,93080.81
2022-10-28T14:36:00.880Z,93080.34
2022-10-28T14:39:20.627Z,93088.00
2022-10-28T14:42:09.008Z,93095.38
2022-10-28T14:44:59.344Z,93090.91
2022-10-28T14:47:55.734Z,93091.88
2022-10-28T14:50:37.868Z,93087.94
2022-10-28T14:53:18.311Z,93088.09
2022-10-28T14:55:58.792Z,93088.53
2022-10-28T14:58:37.235Z,93081.84
2022-10-28T15:01:26.145Z,93079.00
2022-10-28T15:04:01.453Z,93083.41
2022-10-28T15:06:40.320Z,93084.69
2022-10-28T15:09:19.356Z,93085.94
2022-10-28T15:11:55.425Z,93091.13
2022-10-28T15:14:30.905Z,93090.69
2022-10-28T15:17:12.189Z,93090.59
2022-10-28T15:19:45.741Z,93092.78
2022-10-28T15:22:20.958Z,93088.75
2022-10-28T15:24:58.448Z,93079.66
2022-10-28T15:27:32.810Z,93081.41
2022-10-28T15:30:14.360Z,93086.81
2022-10-28T15:32:47.435Z,93093.47
2022-10-28T15:35:39.160Z,93086.38
2022-10-28T15:38:42.030Z,93089.44
2022-10-28T15:41:41.412Z,93091.47
2022-10-28T15:44:27.030Z,93099.81
2022-10-28T15:47:02.026Z,93098.56
2022-10-28T15:49:38.063Z,93092.81
2022-10-28T15:52:32.688Z,93085.22
2022-10-28T15:55:35.652Z,93097.00
2022-10-28T15:58:33.317Z,93098.97
2022-10-28T16:01:09.410Z,93105.47
2022-10-28T16:03:44.285Z,93101.13
2022-10-28T16:06:26.585Z,93107.59
2022-10-28T16:09:06.015Z,93106.34
2022-10-28T16:11:42.300Z,93108.97
2022-10-28T16:14:32.197Z,93112.16
2022-10-28T16:17:14.530Z,93109.69
2022-10-28T16:19:53.153Z,93116.13
2022-10-28T16:22:28.822Z,93117.44
2022-10-28T16:25:01.288Z,93117.97
2022-10-28T16:27:33.616Z,93124.81
2022-10-28T16:30:06.900Z,93128.22
2022-10-28T16:32:41.301Z,93125.41
2022-10-28T16:35:15.565Z,93128.50
2022-10-28T16:37:54.645Z,93134.50
2022-10-28T16:43:22.405Z,93134.00
2022-10-28T16:45:56.594Z,93129.47
2022-10-28T16:48:30.275Z,93136.03
2022-10-28T16:51:05.701Z,93119.38
2022-10-28T16:53:38.691Z,93140.19
2022-10-28T16:56:13.888Z,93147.19
2022-10-28T16:58:48.049Z,93143.19
2022-10-28T17:01:21.865Z,93140.88
2022-10-28T17:03:54.185Z,93141.72
2022-10-28T17:06:26.518Z,93144.16
2022-10-28T17:09:03.765Z,93132.19
2022-10-28T17:11:36.436Z,93140.22
2022-10-28T17:14:08.751Z,93140.16
2022-10-28T17:16:43.301Z,93137.34
2022-10-28T17:19:16.058Z,93138.22
2022-10-28T17:21:48.342Z,93138.97
2022-10-28T17:24:21.562Z,93138.66
2022-10-28T17:26:53.898Z,93143.06
2022-10-28T17:29:26.325Z,93142.06
2022-10-28T17:31:58.660Z,93138.38
2022-10-28T17:34:30.957Z,93141.09
2022-10-28T17:37:04.078Z,93140.19
2022-10-28T17:39:37.445Z,93138.25
2022-10-28T17:42:09.841Z,93148.31
2022-10-28T17:44:42.192Z,93148.09
2022-10-28T17:47:14.525Z,93142.47
2022-10-28T17:49:46.847Z,93145.84
2022-10-28T17:52:19.224Z,93150.41
2022-10-28T17:54:52.658Z,93134.75
2022-10-28T17:57:25.030Z,93141.69
2022-10-28T17:59:57.428Z,93138.50
2022-10-28T18:02:29.816Z,93134.16
2022-10-28T18:05:02.332Z,93137.56
2022-10-28T18:07:34.960Z,93143.59
2022-10-28T18:10:09.397Z,93131.41
2022-10-28T18:12:41.844Z,93132.59
2022-10-28T18:15:14.193Z,93139.19
2022-10-28T18:17:49.041Z,93133.75
2022-10-28T18:20:21.340Z,93136.09
2022-10-28T18:22:53.879Z,93134.53
2022-10-28T18:25:27.064Z,93130.94
2022-10-28T18:27:59.443Z,93132.06
2022-10-28T18:30:32.108Z,93132.34
2022-10-28T18:33:04.432Z,93136.03
2022-10-28T18:35:36.809Z,93132.41
2022-10-28T18:38:09.240Z,93142.69
2022-10-28T18:40:46.430Z,93140.13
2022-10-28T18:43:20.953Z,93134.81
2022-10-28T18:45:53.534Z,93141.13
2022-10-28T18:48:25.911Z,93138.09
2022-10-28T18:51:00.258Z,93145.72
2022-10-28T18:53:35.258Z,93145.31
2022-10-28T18:56:11.185Z,93147.56
2022-10-28T18:58:43.824Z,93137.75
2022-10-28T19:01:18.161Z,93146.50
2022-10-28T19:03:52.776Z,93143.22
2022-10-28T19:06:29.044Z,93144.81
2022-10-28T19:09:03.743Z,93146.41
2022-10-28T19:11:36.856Z,93150.94
2022-10-28T19:14:09.629Z,93150.97
2022-10-28T19:16:41.969Z,93149.75
2022-10-28T19:19:14.325Z,93153.19
2022-10-28T19:21:46.719Z,93158.47
2022-10-28T19:24:19.221Z,93158.03
2022-10-28T19:26:52.247Z,93155.94
2022-10-28T19:29:24.637Z,93160.72
2022-10-28T19:31:56.945Z,93159.47
2022-10-28T19:34:29.498Z,93158.50
2022-10-28T19:37:01.891Z,93157.25
2022-10-28T19:39:34.353Z,93162.53
2022-10-28T19:42:07.388Z,93166.25
2022-10-28T19:44:39.803Z,93164.72
2022-10-28T19:47:12.161Z,93168.50
2022-10-28T19:49:44.610Z,93165.16
2022-10-28T19:52:17.035Z,93173.50
2022-10-28T19:54:49.357Z,93174.84
2022-10-28T19:57:22.329Z,93173.59
2022-10-28T19:59:54.582Z,93173.63
2022-10-28T20:02:26.988Z,93174.16
2022-10-28T20:04:59.452Z,93172.88
2022-10-28T20:07:31.816Z,93174.47
2022-10-28T20:10:04.765Z,93178.91
2022-10-28T20:12:37.797Z,93185.41
2022-10-28T20:15:10.512Z,93183.34
2022-10-28T20:17:42.848Z,93181.75
2022-10-28T20:20:15.227Z,93179.97
2022-10-28T20:22:47.523Z,93179.16
2022-10-28T20:25:19.834Z,93188.34
2022-10-28T20:27:53.175Z,93177.69
2022-10-28T20:30:25.746Z,93180.53
2022-10-28T20:32:58.029Z,93179.78
2022-10-28T20:35:33.196Z,93180.06
2022-10-28T20:40:47.601Z,93186.84
2022-10-28T20:43:21.921Z,93181.63
2022-10-28T20:45:55.833Z,93184.25
2022-10-28T20:48:29.484Z,93184.53
2022-10-28T20:51:02.280Z,93177.47
2022-10-28T20:53:34.928Z,93189.22
2022-10-28T20:56:08.002Z,93183.25
2022-10-28T20:58:40.981Z,93186.34
2022-10-28T21:01:15.909Z,93179.06
2022-10-28T21:03:49.258Z,93172.31
2022-10-28T21:06:22.453Z,93183.25
2022-10-28T21:08:55.875Z,93181.16
2022-10-28T21:11:28.719Z,93180.66
2022-10-28T21:14:02.088Z,93181.72
2022-10-28T21:16:34.448Z,93186.38
2022-10-28T21:19:06.766Z,93176.75
2022-10-28T21:21:39.012Z,93175.19
2022-10-28T21:24:11.420Z,93174.91
2022-10-28T21:26:47.126Z,93177.25
2022-10-28T21:29:21.407Z,93178.06
2022-10-28T21:31:53.712Z,93170.50
2022-10-28T21:34:26.021Z,93172.06
2022-10-28T21:36:58.308Z,93174.66
2022-10-28T21:39:30.590Z,93179.84
2022-10-28T21:42:02.948Z,93184.78
2022-10-28T21:44:35.897Z,93177.28
2022-10-28T21:47:08.199Z,93177.25
2022-10-28T21:49:40.580Z,93182.97
2022-10-28T21:52:12.863Z,93181.66
2022-10-28T21:54:45.184Z,93178.53
2022-10-28T21:57:17.530Z,93181.41
2022-10-28T21:59:50.533Z,93183.72
2022-10-28T22:02:22.937Z,93175.16
2022-10-28T22:04:55.303Z,93179.56
2022-10-28T22:07:27.576Z,93183.69
2022-10-28T22:09:59.912Z,93176.19
2022-10-28T22:12:32.222Z,93177.47
2022-10-28T22:15:06.484Z,93179.00
2022-10-28T22:17:39.036Z,93175.34
2022-10-28T22:20:11.351Z,93176.63
2022-10-28T22:22:43.671Z,93176.88
2022-10-28T22:25:16.057Z,93173.19
2022-10-28T22:27:48.317Z,93174.72
2022-10-28T22:30:21.268Z,93170.31
2022-10-28T22:32:53.800Z,93169.25
2022-10-28T22:35:26.202Z,93160.41
2022-10-28T22:37:58.547Z,93168.44
2022-10-28T22:40:30.932Z,93166.63
2022-10-28T22:43:03.264Z,93167.38
2022-10-28T22:45:36.214Z,93171.81
2022-10-28T22:48:08.853Z,93179.28
2022-10-28T22:50:42.299Z,93170.41
2022-10-28T22:53:14.592Z,93173.00
2022-10-28T22:55:47.642Z,93168.84
2022-10-28T22:58:20.297Z,93168.84
2022-10-28T23:00:53.461Z,93162.09
2022-10-28T23:03:25.775Z,93173.50
2022-10-28T23:05:58.068Z,93168.53
2022-10-28T23:08:30.393Z,93168.75
2022-10-28T23:11:02.706Z,93160.97
2022-10-28T23:16:15.335Z,93162.44
2022-10-28T23:18:48.082Z,93163.69
2022-10-28T23:21:21.925Z,93166.78
2022-10-28T23:23:55.359Z,93162.31
2022-10-28T23:26:28.732Z,93153.47
2022-10-28T23:29:01.046Z,93158.63
2022-10-28T23:31:34.047Z,93160.44
2022-10-28T23:34:06.473Z,93166.38
2022-10-28T23:36:39.418Z,93158.03
2022-10-28T23:39:11.755Z,93160.66
2022-10-28T23:41:44.029Z,93160.34
2022-10-28T23:44:16.287Z,93164.50
2022-10-28T23:46:49.748Z,93156.41
2022-10-28T23:49:22.039Z,93152.75
2022-10-28T23:51:54.362Z,93149.78
2022-10-28T23:54:26.704Z,93141.50
2022-10-28T23:56:59.041Z,93136.75
2022-10-28T23:59:31.400Z,93138.03
